createdAt,value
2023-03-18T00:12:10.697Z,4.30
2023-03-18T00:15:02.180Z,4.53
2023-03-18T00:17:37.788Z,4.22
2023-03-18T00:20:14.822Z,4.30
2023-03-18T00:22:50.178Z,4.55
2023-03-18T00:31:44.154Z,4.45
2023-03-18T00:34:46.169Z,4.45
2023-03-18T00:37:43.298Z,4.18
2023-03-18T00:40:51.385Z,4.50
2023-03-18T00:46:39.037Z,4.30
2023-03-18T00:49:16.444Z,4.72
2023-03-18T01:03:16.221Z,4.68
2023-03-18T01:11:44.792Z,4.17
2023-03-18T01:14:40.776Z,4.32
2023-03-18T01:17:37.632Z,4.60
2023-03-18T01:20:18.990Z,4.65
2023-03-18T01:23:11.766Z,4.68
2023-03-18T01:26:27.181Z,5.03
2023-03-18T01:28:59.509Z,4.60
2023-03-18T01:35:06.994Z,5.10
2023-03-18T01:49:44.868Z,5.22
2023-03-18T01:52:42.463Z,5.20
2023-03-18T01:58:27.761Z,4.32
2023-03-18T02:01:03.590Z,5.05
2023-03-18T02:03:37.342Z,5.05
2023-03-18T02:12:20.062Z,5.45
2023-03-18T02:27:27.210Z,5.28
2023-03-18T02:30:32.975Z,9.63
2023-03-18T02:36:08.560Z,10.65
2023-03-18T02:44:24.876Z,7.50
2023-03-18T02:52:44.290Z,8.07
2023-03-18T02:55:16.005Z,8.13
2023-03-18T02:57:59.643Z,8.00
2023-03-18T03:00:30.140Z,8.75
2023-03-18T03:02:58.480Z,7.70
2023-03-18T03:05:50.186Z,6.97
2023-03-18T03:08:38.741Z,6.95
2023-03-18T03:11:40.731Z,6.93
2023-03-18T03:19:40.815Z,6.53
2023-03-18T03:24:56.908Z,7.47
2023-03-18T03:27:42.035Z,6.93
2023-03-18T03:30:32.804Z,7.60
2023-03-18T03:35:47.828Z,7.18
2023-03-18T03:38:24.652Z,7.53
2023-03-18T03:41:11.455Z,7.07
2023-03-18T03:46:27.995Z,7.97
2023-03-18T03:54:28.708Z,8.25
2023-03-18T03:56:57.032Z,8.57
2023-03-18T03:59:24.370Z,8.33
2023-03-18T04:02:11.020Z,8.90
2023-03-18T04:05:04.265Z,8.18
2023-03-18T04:07:32.449Z,7.82
2023-03-18T04:13:04.090Z,8.23
2023-03-18T04:24:28.405Z,7.85
2023-03-18T04:38:29.663Z,7.75
2023-03-18T04:40:57.798Z,8.07
2023-03-18T04:46:13.271Z,7.60
2023-03-18T04:49:00.434Z,8.07
2023-03-18T04:51:27.682Z,7.75
2023-03-18T05:02:04.569Z,7.70
2023-03-18T05:05:05.329Z,8.10
2023-03-18T05:08:07.337Z,7.63
2023-03-18T05:11:01.528Z,8.10
2023-03-18T05:13:30.912Z,6.95
2023-03-18T05:18:48.928Z,8.63
2023-03-18T05:26:55.850Z,7.28
2023-03-18T05:29:38.653Z,7.78
2023-03-18T05:34:54.159Z,8.10
2023-03-18T05:37:40.403Z,7.65
2023-03-18T05:43:14.471Z,7.45
2023-03-18T05:45:44.145Z,7.43
2023-03-18T05:51:04.383Z,7.45
2023-03-18T05:53:54.123Z,7.55
2023-03-18T05:56:38.380Z,7.38
2023-03-18T05:59:11.388Z,7.35
2023-03-18T06:01:42.358Z,6.77
2023-03-18T06:04:13.247Z,7.00
2023-03-18T06:06:44.945Z,7.35
2023-03-18T06:09:17.577Z,7.45
2023-03-18T06:11:49.272Z,7.30
2023-03-18T06:14:41.379Z,7.60
2023-03-18T06:17:09.697Z,7.30
2023-03-18T06:19:44.970Z,7.15
2023-03-18T06:22:26.004Z,7.30
2023-03-18T06:24:56.961Z,6.88
2023-03-18T06:30:26.500Z,6.95
2023-03-18T06:33:14.797Z,7.45
2023-03-18T06:38:54.342Z,7.50
2023-03-18T06:41:33.751Z,7.47
2023-03-18T06:52:09.029Z,7.30
2023-03-18T06:54:38.114Z,7.03
2023-03-18T06:57:14.964Z,7.65
2023-03-18T06:59:43.167Z,7.50
2023-03-18T07:05:27.922Z,7.03
2023-03-18T07:07:55.741Z,7.43
2023-03-18T07:16:24.993Z,7.03
2023-03-18T07:36:00.353Z,7.57
2023-03-18T07:38:27.131Z,7.72
2023-03-18T07:40:53.705Z,8.38
2023-03-18T07:43:20.308Z,8.05
2023-03-18T07:45:46.851Z,7.72
2023-03-18T07:48:14.276Z,7.60
2023-03-18T07:50:41.332Z,7.57
2023-03-18T07:53:07.813Z,9.10
2023-03-18T07:55:35.464Z,7.82
2023-03-18T07:58:02.232Z,8.95
2023-03-18T08:00:29.550Z,9.37
2023-03-18T08:02:56.011Z,9.50
2023-03-18T08:05:22.649Z,9.95
2023-03-18T08:07:49.424Z,9.13
2023-03-18T08:10:16.164Z,10.13
2023-03-18T08:12:52.557Z,10.47
2023-03-18T08:15:31.879Z,11.18
2023-03-18T08:20:57.655Z,9.98
2023-03-18T08:43:07.815Z,7.77
2023-03-18T09:12:21.651Z,6.43
2023-03-18T09:37:38.710Z,7.27
2023-03-18T09:40:07.438Z,6.93
2023-03-18T09:42:45.912Z,7.00
2023-03-18T09:45:23.938Z,6.85
2023-03-18T09:48:27.633Z,7.03
2023-03-18T13:39:08.458Z,2.42
2023-03-18T13:41:50.136Z,2.00
2023-03-18T13:44:54.887Z,2.92
2023-03-18T13:47:19.625Z,3.03
2023-03-18T13:49:50.166Z,2.85
2023-03-18T13:56:02.321Z,2.42
2023-03-18T13:59:09.190Z,2.72
2023-03-18T14:34:58.112Z,1.60
2023-03-18T15:03:08.405Z,0.47
2023-03-18T15:05:38.918Z,0.60
2023-03-18T15:08:17.888Z,0.60
2023-03-18T15:10:49.689Z,0.50
2023-03-18T15:21:42.642Z,1.15
2023-03-18T15:24:11.218Z,1.02
2023-03-18T15:29:33.197Z,0.98
2023-03-18T15:36:20.460Z,1.00
2023-03-18T16:05:54.055Z,0.60
2023-03-18T16:10:41.742Z,0.40
2023-03-18T16:12:08.306Z,0.60
2023-03-18T16:15:32.814Z,0.70
2023-03-18T16:18:10.506Z,0.80
2023-03-18T16:20:51.762Z,0.77
2023-03-18T16:23:24.736Z,0.68
2023-03-18T16:26:10.420Z,0.60
2023-03-18T16:28:44.248Z,0.90
2023-03-18T16:31:12.660Z,0.70
2023-03-18T16:33:39.510Z,0.60
2023-03-18T16:36:10.148Z,0.65
2023-03-18T16:38:36.847Z,0.85
2023-03-18T16:41:03.595Z,0.67
2023-03-18T16:43:32.185Z,0.75
2023-03-18T16:46:01.479Z,0.88
2023-03-18T16:48:28.200Z,0.73
2023-03-18T16:50:56.900Z,0.60
2023-03-18T16:53:27.259Z,0.70
2023-03-18T16:55:57.670Z,0.63
2023-03-18T16:58:31.388Z,0.60
2023-03-18T17:00:58.209Z,0.40
2023-03-18T17:03:24.896Z,0.60
2023-03-18T17:05:52.964Z,0.73
2023-03-18T17:08:21.577Z,0.70
2023-03-18T17:10:51.502Z,0.60
2023-03-18T17:13:23.124Z,0.63
2023-03-18T17:15:51.255Z,0.90
2023-03-18T17:18:21.265Z,0.67
2023-03-18T17:20:49.053Z,0.75
2023-03-18T17:23:17.754Z,0.77
2023-03-18T17:25:57.358Z,0.60
2023-03-18T17:28:32.395Z,0.60
2023-03-18T17:30:59.986Z,0.97
2023-03-18T17:33:31.100Z,0.98
2023-03-18T17:36:00.616Z,1.17
2023-03-18T17:38:28.734Z,1.17
2023-03-18T17:40:55.567Z,1.40
2023-03-18T17:43:33.296Z,1.30
2023-03-18T17:46:01.641Z,1.55
2023-03-18T17:48:30.340Z,1.60
2023-03-18T17:51:00.481Z,1.63
2023-03-18T17:53:32.007Z,1.80
2023-03-18T17:55:59.284Z,1.33
2023-03-18T17:58:28.796Z,1.60
2023-03-18T18:01:02.622Z,1.55
2023-03-18T18:03:31.847Z,1.70
2023-03-18T18:06:00.384Z,1.63
2023-03-18T18:08:29.749Z,1.67
2023-03-18T18:11:18.796Z,1.80
2023-03-18T18:13:47.601Z,1.95
2023-03-18T18:16:14.872Z,1.90
2023-03-18T18:18:41.691Z,1.92
2023-03-18T18:21:15.596Z,1.90
2023-03-18T18:23:44.969Z,1.85
2023-03-18T18:26:16.501Z,2.17
2023-03-18T18:28:48.388Z,2.08
2023-03-18T18:31:20.143Z,2.15
2023-03-18T18:33:50.220Z,2.20
2023-03-18T18:36:18.159Z,2.40
2023-03-18T18:38:45.305Z,2.20
2023-03-18T18:41:11.894Z,3.47
2023-03-18T18:43:39.862Z,3.53
2023-03-18T18:46:12.889Z,2.43
2023-03-18T18:48:39.629Z,2.30
2023-03-18T18:51:06.739Z,2.70
2023-03-18T18:53:36.594Z,2.42
2023-03-18T18:56:14.272Z,2.80
2023-03-18T18:58:43.182Z,2.50
2023-03-18T19:01:13.921Z,2.72
2023-03-18T19:03:41.671Z,2.40
2023-03-18T19:06:30.344Z,2.30
2023-03-18T19:08:59.622Z,2.25
2023-03-18T19:11:27.920Z,2.60
2023-03-18T19:13:55.431Z,2.60
2023-03-18T19:16:31.990Z,3.10
2023-03-18T19:18:59.851Z,3.33
2023-03-18T19:21:29.969Z,3.00
2023-03-18T19:23:58.357Z,3.37
2023-03-18T19:26:25.108Z,3.25
2023-03-18T19:29:01.575Z,3.33
2023-03-18T19:31:30.848Z,3.42
2023-03-18T19:33:59.560Z,3.17
2023-03-18T19:36:30.520Z,3.80
2023-03-18T19:38:59.504Z,3.72
2023-03-18T19:41:29.654Z,3.28
2023-03-18T19:44:13.826Z,3.25
2023-03-18T19:46:43.497Z,4.35
2023-03-18T19:52:17.060Z,5.55
2023-03-18T19:54:44.212Z,4.43
2023-03-18T19:57:20.250Z,2.60
2023-03-18T19:59:48.620Z,1.38
2023-03-18T20:02:26.326Z,1.13
2023-03-18T20:04:55.843Z,1.27
2023-03-18T20:07:25.149Z,1.13
2023-03-18T20:09:53.397Z,4.38
2023-03-18T20:12:25.679Z,4.38
2023-03-18T20:14:52.900Z,1.10
2023-03-18T20:17:23.499Z,0.70
2023-03-18T20:19:51.416Z,0.60
2023-03-18T20:22:24.889Z,0.40
2023-03-18T20:24:52.110Z,0.30
2023-03-18T20:27:18.706Z,0.50
2023-03-18T20:29:46.923Z,0.40
2023-03-18T20:32:13.880Z,0.30
2023-03-18T20:34:41.630Z,0.40
2023-03-18T20:37:21.639Z,0.20
2023-03-18T20:39:49.755Z,0.17
2023-03-18T20:42:22.465Z,0.30
2023-03-18T20:44:48.971Z,0.20
2023-03-18T20:47:15.572Z,0.20
2023-03-18T20:49:45.663Z,0.10
2023-03-18T20:52:26.305Z,0.20
2023-03-18T20:54:53.214Z,0.10
2023-03-18T20:57:19.983Z,0.10
2023-03-18T20:59:47.040Z,0.10
2023-03-18T21:02:29.839Z,0.10
2023-03-18T21:04:58.151Z,0.10
2023-03-18T21:07:25.601Z,0.10
2023-03-18T21:09:52.597Z,0.10
2023-03-18T21:12:20.733Z,0.10
2023-03-18T21:14:48.475Z,0.10
2023-03-18T21:17:21.962Z,0.10
2023-03-18T21:19:49.783Z,0.10
2023-03-18T21:22:21.656Z,0.10
2023-03-18T21:24:49.273Z,0.00
2023-03-18T21:27:20.235Z,0.10
2023-03-18T21:29:49.273Z,0.07
2023-03-18T21:32:32.727Z,0.00
2023-03-18T21:35:00.004Z,0.10
2023-03-18T21:37:27.450Z,0.10
2023-03-18T21:39:54.348Z,0.00
2023-03-18T21:42:37.042Z,0.10
2023-03-18T21:45:38.776Z,0.10
2023-03-18T21:51:07.617Z,0.10
2023-03-18T21:53:46.255Z,0.10
2023-03-18T21:56:34.427Z,0.10
2023-03-18T22:02:25.202Z,0.10
2023-03-18T22:05:07.140Z,0.20
2023-03-18T22:16:22.920Z,0.20
2023-03-18T22:19:12.267Z,0.20
2023-03-18T22:21:56.743Z,0.20
2023-03-18T22:36:09.541Z,0.20
2023-03-18T22:41:33.561Z,0.20
2023-03-18T22:44:12.135Z,0.20
2023-03-18T22:46:42.096Z,0.20
2023-03-18T22:49:16.281Z,0.30
2023-03-18T22:57:21.490Z,0.20
2023-03-18T22:59:53.350Z,0.20
2023-03-18T23:02:30.211Z,0.32
2023-03-18T23:19:34.468Z,0.30
2023-03-18T23:24:53.360Z,0.38
2023-03-18T23:38:53.836Z,0.82
2023-03-18T23:41:21.720Z,0.50
2023-03-18T23:43:53.660Z,0.70
2023-03-18T23:46:52.952Z,0.40
2023-03-18T23:52:30.648Z,5.88
2023-03-18T23:57:47.982Z,7.00
